sensor_id;sensor_type;location;lat;lon;timestamp;temperature;humidity
29539;DHT22;16482;51.046;4.498;2022-07-11T00:01:07;24.60;49.30
29539;DHT22;16482;51.046;4.498;2022-07-11T00:03:36;24.60;48.70
29539;DHT22;16482;51.046;4.498;2022-07-11T00:06:04;24.60;48.70
29539;DHT22;16482;51.046;4.498;2022-07-11T00:08:36;24.60;48.70
29539;DHT22;16482;51.046;4.498;2022-07-11T00:11:11;24.60;48.70
29539;DHT22;16482;51.046;4.498;2022-07-11T00:13:38;24.60;48.70
29539;DHT22;16482;51.046;4.498;2022-07-11T00:16:06;24.60;48.80
29539;DHT22;16482;51.046;4.498;2022-07-11T00:18:42;24.60;48.80
29539;DHT22;16482;51.046;4.498;2022-07-11T00:21:08;24.60;48.80
29539;DHT22;16482;51.046;4.498;2022-07-11T00:23:36;24.50;48.70
29539;DHT22;16482;51.046;4.498;2022-07-11T00:26:11;24.60;48.80
29539;DHT22;16482;51.046;4.498;2022-07-11T00:28:37;24.60;48.70
29539;DHT22;16482;51.046;4.498;2022-07-11T00:31:05;24.50;48.80
29539;DHT22;16482;51.046;4.498;2022-07-11T00:33:37;24.50;48.80
29539;DHT22;16482;51.046;4.498;2022-07-11T00:36:09;24.60;48.80
29539;DHT22;16482;51.046;4.498;2022-07-11T00:38:35;24.60;48.80
29539;DHT22;16482;51.046;4.498;2022-07-11T00:41:10;24.60;48.90
29539;DHT22;16482;51.046;4.498;2022-07-11T00:43:39;24.60;48.90
29539;DHT22;16482;51.046;4.498;2022-07-11T00:46:07;24.50;48.80
29539;DHT22;16482;51.046;4.498;2022-07-11T00:48:36;24.50;48.90
29539;DHT22;16482;51.046;4.498;2022-07-11T00:51:05;24.60;49.00
29539;DHT22;16482;51.046;4.498;2022-07-11T00:53:37;24.60;48.90
29539;DHT22;16482;51.046;4.498;2022-07-11T00:56:04;24.50;48.80
29539;DHT22;16482;51.046;4.498;2022-07-11T00:58:40;24.50;48.80
29539;DHT22;16482;51.046;4.498;2022-07-11T01:01:07;24.60;48.80
29539;DHT22;16482;51.046;4.498;2022-07-11T01:03:35;24.50;48.80
29539;DHT22;16482;51.046;4.498;2022-07-11T01:06:08;24.50;48.80
29539;DHT22;16482;51.046;4.498;2022-07-11T01:08:34;24.50;48.80
29539;DHT22;16482;51.046;4.498;2022-07-11T01:11:09;24.50;48.80
29539;DHT22;16482;51.046;4.498;2022-07-11T01:13:41;24.50;48.80
29539;DHT22;16482;51.046;4.498;2022-07-11T01:16:18;24.50;49.40
29539;DHT22;16482;51.046;4.498;2022-07-11T01:18:46;24.50;48.80
29539;DHT22;16482;51.046;4.498;2022-07-11T01:21:30;24.50;48.80
29539;DHT22;16482;51.046;4.498;2022-07-11T01:23:59;24.50;48.70
29539;DHT22;16482;51.046;4.498;2022-07-11T01:26:25;24.50;48.80
29539;DHT22;16482;51.046;4.498;2022-07-11T01:28:51;24.50;48.90
29539;DHT22;16482;51.046;4.498;2022-07-11T01:31:18;24.50;48.90
29539;DHT22;16482;51.046;4.498;2022-07-11T01:33:44;24.50;48.80
29539;DHT22;16482;51.046;4.498;2022-07-11T01:36:11;24.50;48.80
29539;DHT22;16482;51.046;4.498;2022-07-11T01:38:38;24.50;48.80
29539;DHT22;16482;51.046;4.498;2022-07-11T01:41:07;24.50;48.80
29539;DHT22;16482;51.046;4.498;2022-07-11T01:43:35;24.50;48.80
29539;DHT22;16482;51.046;4.498;2022-07-11T01:46:10;24.50;48.80
29539;DHT22;16482;51.046;4.498;2022-07-11T01:48:36;24.50;48.80
29539;DHT22;16482;51.046;4.498;2022-07-11T01:51:11;24.50;48.80
29539;DHT22;16482;51.046;4.498;2022-07-11T01:53:37;24.50;48.70
29539;DHT22;16482;51.046;4.498;2022-07-11T01:56:06;24.50;48.70
29539;DHT22;16482;51.046;4.498;2022-07-11T01:58:41;24.50;48.70
29539;DHT22;16482;51.046;4.498;2022-07-11T02:01:08;24.50;48.60
29539;DHT22;16482;51.046;4.498;2022-07-11T02:03:36;24.50;48.70
29539;DHT22;16482;51.046;4.498;2022-07-11T02:06:06;24.50;48.70
29539;DHT22;16482;51.046;4.498;2022-07-11T02:08:38;24.50;48.70
29539;DHT22;16482;51.046;4.498;2022-07-11T02:11:04;24.50;48.70
29539;DHT22;16482;51.046;4.498;2022-07-11T02:13:37;24.50;48.70
29539;DHT22;16482;51.046;4.498;2022-07-11T02:16:06;24.50;48.70
29539;DHT22;16482;51.046;4.498;2022-07-11T02:18:34;24.50;48.70
29539;DHT22;16482;51.046;4.498;2022-07-11T02:21:09;24.40;48.70
29539;DHT22;16482;51.046;4.498;2022-07-11T02:23:35;24.50;48.70
29539;DHT22;16482;51.046;4.498;2022-07-11T02:26:09;24.50;48.70
29539;DHT22;16482;51.046;4.498;2022-07-11T02:28:37;24.50;48.80
29539;DHT22;16482;51.046;4.498;2022-07-11T02:31:05;24.50;48.80
29539;DHT22;16482;51.046;4.498;2022-07-11T02:33:38;24.50;48.80
29539;DHT22;16482;51.046;4.498;2022-07-11T02:36:05;24.50;48.70
29539;DHT22;16482;51.046;4.498;2022-07-11T02:38:42;24.40;48.70
29539;DHT22;16482;51.046;4.498;2022-07-11T02:41:08;24.50;48.70
29539;DHT22;16482;51.046;4.498;2022-07-11T02:43:34;24.40;48.70
29539;DHT22;16482;51.046;4.498;2022-07-11T02:46:02;24.50;48.80
29539;DHT22;16482;51.046;4.498;2022-07-11T02:48:37;24.50;48.70
29539;DHT22;16482;51.046;4.498;2022-07-11T02:51:06;24.50;48.70
29539;DHT22;16482;51.046;4.498;2022-07-11T02:53:34;24.40;48.70
29539;DHT22;16482;51.046;4.498;2022-07-11T02:56:09;24.40;48.60
29539;DHT22;16482;51.046;4.498;2022-07-11T02:58:38;24.50;48.60
29539;DHT22;16482;51.046;4.498;2022-07-11T03:01:06;24.40;48.60
29539;DHT22;16482;51.046;4.498;2022-07-11T03:03:34;24.50;48.70
29539;DHT22;16482;51.046;4.498;2022-07-11T03:06:11;24.50;48.60
29539;DHT22;16482;51.046;4.498;2022-07-11T03:08:37;24.50;48.60
29539;DHT22;16482;51.046;4.498;2022-07-11T03:11:07;24.40;48.50
29539;DHT22;16482;51.046;4.498;2022-07-11T03:13:36;24.50;48.50
29539;DHT22;16482;51.046;4.498;2022-07-11T03:16:05;24.40;48.50
29539;DHT22;16482;51.046;4.498;2022-07-11T03:18:40;24.40;48.50
29539;DHT22;16482;51.046;4.498;2022-07-11T03:21:06;24.40;48.50
29539;DHT22;16482;51.046;4.498;2022-07-11T03:23:37;24.40;48.50
29539;DHT22;16482;51.046;4.498;2022-07-11T03:26:06;24.40;48.50
29539;DHT22;16482;51.046;4.498;2022-07-11T03:28:39;24.40;48.50
29539;DHT22;16482;51.046;4.498;2022-07-11T03:31:07;24.40;48.50
29539;DHT22;16482;51.046;4.498;2022-07-11T03:33:36;24.40;48.50
29539;DHT22;16482;51.046;4.498;2022-07-11T03:36:05;24.40;48.50
29539;DHT22;16482;51.046;4.498;2022-07-11T03:38:39;24.40;48.40
29539;DHT22;16482;51.046;4.498;2022-07-11T03:41:07;24.40;48.40
29539;DHT22;16482;51.046;4.498;2022-07-11T03:43:36;24.40;48.40
29539;DHT22;16482;51.046;4.498;2022-07-11T03:46:05;24.40;48.40
29539;DHT22;16482;51.046;4.498;2022-07-11T03:48:40;24.40;48.40
29539;DHT22;16482;51.046;4.498;2022-07-11T03:51:06;24.40;48.40
29539;DHT22;16482;51.046;4.498;2022-07-11T03:53:37;24.30;48.40
29539;DHT22;16482;51.046;4.498;2022-07-11T03:56:03;24.30;48.30
29539;DHT22;16482;51.046;4.498;2022-07-11T03:58:37;24.40;48.40
29539;DHT22;16482;51.046;4.498;2022-07-11T04:01:05;24.40;48.40
29539;DHT22;16482;51.046;4.498;2022-07-11T04:03:41;24.40;48.40
29539;DHT22;16482;51.046;4.498;2022-07-11T04:06:07;24.40;48.40
29539;DHT22;16482;51.046;4.498;2022-07-11T04:08:35;24.30;48.40
29539;DHT22;16482;51.046;4.498;2022-07-11T04:11:10;24.30;48.40
29539;DHT22;16482;51.046;4.498;2022-07-11T04:13:36;24.40;48.40
29539;DHT22;16482;51.046;4.498;2022-07-11T04:16:10;24.30;48.40
29539;DHT22;16482;51.046;4.498;2022-07-11T04:18:36;24.40;48.40
29539;DHT22;16482;51.046;4.498;2022-07-11T04:21:05;24.30;48.40
29539;DHT22;16482;51.046;4.498;2022-07-11T04:23:40;24.40;48.50
29539;DHT22;16482;51.046;4.498;2022-07-11T04:26:06;24.40;48.50
29539;DHT22;16482;51.046;4.498;2022-07-11T04:28:34;24.40;48.50
29539;DHT22;16482;51.046;4.498;2022-07-11T04:31:07;24.30;48.40
29539;DHT22;16482;51.046;4.498;2022-07-11T04:33:36;24.40;48.50
29539;DHT22;16482;51.046;4.498;2022-07-11T04:36:04;24.40;48.50
29539;DHT22;16482;51.046;4.498;2022-07-11T04:38:39;24.30;48.50
29539;DHT22;16482;51.046;4.498;2022-07-11T04:41:09;24.40;48.50
29539;DHT22;16482;51.046;4.498;2022-07-11T04:43:35;24.30;48.60
29539;DHT22;16482;51.046;4.498;2022-07-11T04:46:11;24.30;48.60
29539;DHT22;16482;51.046;4.498;2022-07-11T04:48:37;24.30;48.60
29539;DHT22;16482;51.046;4.498;2022-07-11T04:51:06;24.30;48.60
29539;DHT22;16482;51.046;4.498;2022-07-11T04:53:41;24.30;48.70
29539;DHT22;16482;51.046;4.498;2022-07-11T04:56:07;24.30;48.70
29539;DHT22;16482;51.046;4.498;2022-07-11T04:58:40;24.40;48.80
29539;DHT22;16482;51.046;4.498;2022-07-11T05:01:06;24.40;48.80
29539;DHT22;16482;51.046;4.498;2022-07-11T05:03:41;24.40;49.40
29539;DHT22;16482;51.046;4.498;2022-07-11T05:06:06;24.40;49.00
29539;DHT22;16482;51.046;4.498;2022-07-11T05:08:35;24.30;49.30
29539;DHT22;16482;51.046;4.498;2022-07-11T05:11:04;24.40;49.60
29539;DHT22;16482;51.046;4.498;2022-07-11T05:13:35;24.30;49.90
29539;DHT22;16482;51.046;4.498;2022-07-11T05:16:05;24.30;50.10
29539;DHT22;16482;51.046;4.498;2022-07-11T05:18:39;24.30;50.30
29539;DHT22;16482;51.046;4.498;2022-07-11T05:21:05;24.30;50.50
29539;DHT22;16482;51.046;4.498;2022-07-11T05:23:39;24.20;50.70
29539;DHT22;16482;51.046;4.498;2022-07-11T05:26:06;24.30;50.90
29539;DHT22;16482;51.046;4.498;2022-07-11T05:28:36;24.30;51.10
29539;DHT22;16482;51.046;4.498;2022-07-11T05:31:04;24.30;51.50
29539;DHT22;16482;51.046;4.498;2022-07-11T05:33:30;24.20;51.70
29539;DHT22;16482;51.046;4.498;2022-07-11T05:36:05;24.20;51.80
29539;DHT22;16482;51.046;4.498;2022-07-11T05:38:34;24.20;52.00
29539;DHT22;16482;51.046;4.498;2022-07-11T05:41:08;24.20;52.30
29539;DHT22;16482;51.046;4.498;2022-07-11T05:43:36;24.20;52.40
29539;DHT22;16482;51.046;4.498;2022-07-11T05:46:05;24.20;52.70
29539;DHT22;16482;51.046;4.498;2022-07-11T05:48:40;24.10;52.80
29539;DHT22;16482;51.046;4.498;2022-07-11T05:51:09;24.20;52.90
29539;DHT22;16482;51.046;4.498;2022-07-11T05:53:35;24.20;53.00
29539;DHT22;16482;51.046;4.498;2022-07-11T05:56:08;24.20;53.10
29539;DHT22;16482;51.046;4.498;2022-07-11T05:58:34;24.20;53.20
29539;DHT22;16482;51.046;4.498;2022-07-11T06:01:00;24.10;53.30
29539;DHT22;16482;51.046;4.498;2022-07-11T06:03:37;24.10;53.40
29539;DHT22;16482;51.046;4.498;2022-07-11T06:06:06;24.20;53.40
29539;DHT22;16482;51.046;4.498;2022-07-11T06:08:39;24.10;53.50
29539;DHT22;16482;51.046;4.498;2022-07-11T06:11:12;24.10;53.40
29539;DHT22;16482;51.046;4.498;2022-07-11T06:13:40;24.10;53.60
29539;DHT22;16482;51.046;4.498;2022-07-11T06:16:13;24.20;53.70
29539;DHT22;16482;51.046;4.498;2022-07-11T06:18:39;24.20;53.60
29539;DHT22;16482;51.046;4.498;2022-07-11T06:21:08;24.20;53.70
29539;DHT22;16482;51.046;4.498;2022-07-11T06:23:39;24.20;53.70
29539;DHT22;16482;51.046;4.498;2022-07-11T06:26:06;24.20;53.70
29539;DHT22;16482;51.046;4.498;2022-07-11T06:28:35;24.20;53.80
29539;DHT22;16482;51.046;4.498;2022-07-11T06:31:04;24.20;53.90
29539;DHT22;16482;51.046;4.498;2022-07-11T06:33:36;24.20;53.90
29539;DHT22;16482;51.046;4.498;2022-07-11T06:36:10;24.20;54.00
29539;DHT22;16482;51.046;4.498;2022-07-11T06:38:37;24.10;54.10
29539;DHT22;16482;51.046;4.498;2022-07-11T06:41:06;24.20;54.20
29539;DHT22;16482;51.046;4.498;2022-07-11T06:43:39;24.20;54.10
29539;DHT22;16482;51.046;4.498;2022-07-11T06:46:08;24.30;53.90
29539;DHT22;16482;51.046;4.498;2022-07-11T06:48:36;24.40;53.80
29539;DHT22;16482;51.046;4.498;2022-07-11T06:51:10;24.40;53.70
29539;DHT22;16482;51.046;4.498;2022-07-11T06:53:38;24.40;53.70
29539;DHT22;16482;51.046;4.498;2022-07-11T06:56:04;24.40;53.60
29539;DHT22;16482;51.046;4.498;2022-07-11T06:58:39;24.40;53.80
29539;DHT22;16482;51.046;4.498;2022-07-11T07:01:06;24.50;53.30
29539;DHT22;16482;51.046;4.498;2022-07-11T07:03:41;24.60;53.30
29539;DHT22;16482;51.046;4.498;2022-07-11T07:06:07;24.60;53.20
29539;DHT22;16482;51.046;4.498;2022-07-11T07:08:35;24.40;53.50
29539;DHT22;16482;51.046;4.498;2022-07-11T07:11:04;24.50;53.50
29539;DHT22;16482;51.046;4.498;2022-07-11T07:13:39;24.40;53.70
29539;DHT22;16482;51.046;4.498;2022-07-11T07:16:05;24.50;53.60
29539;DHT22;16482;51.046;4.498;2022-07-11T07:18:41;24.40;53.70
29539;DHT22;16482;51.046;4.498;2022-07-11T07:21:08;24.40;53.50
29539;DHT22;16482;51.046;4.498;2022-07-11T07:23:37;24.40;53.70
29539;DHT22;16482;51.046;4.498;2022-07-11T07:26:06;24.30;54.00
29539;DHT22;16482;51.046;4.498;2022-07-11T07:28:34;24.00;54.60
29539;DHT22;16482;51.046;4.498;2022-07-11T07:31:06;24.20;54.30
29539;DHT22;16482;51.046;4.498;2022-07-11T07:33:34;24.20;54.20
29539;DHT22;16482;51.046;4.498;2022-07-11T07:36:00;24.20;53.90
29539;DHT22;16482;51.046;4.498;2022-07-11T07:38:38;24.20;54.00
29539;DHT22;16482;51.046;4.498;2022-07-11T07:41:07;24.10;54.20
29539;DHT22;16482;51.046;4.498;2022-07-11T07:43:40;24.20;54.00
29539;DHT22;16482;51.046;4.498;2022-07-11T07:46:07;24.20;53.90
29539;DHT22;16482;51.046;4.498;2022-07-11T07:48:38;24.20;53.90
29539;DHT22;16482;51.046;4.498;2022-07-11T07:51:07;24.20;54.00
29539;DHT22;16482;51.046;4.498;2022-07-11T07:53:32;23.90;54.50
29539;DHT22;16482;51.046;4.498;2022-07-11T07:56:07;24.00;54.20
29539;DHT22;16482;51.046;4.498;2022-07-11T07:58:35;24.10;54.10
29539;DHT22;16482;51.046;4.498;2022-07-11T08:01:08;23.90;54.50
29539;DHT22;16482;51.046;4.498;2022-07-11T08:03:53;23.80;55.10
29539;DHT22;16482;51.046;4.498;2022-07-11T08:06:20;23.90;54.60
29539;DHT22;16482;51.046;4.498;2022-07-11T08:08:46;24.10;54.50
29539;DHT22;16482;51.046;4.498;2022-07-11T08:11:12;24.20;54.30
29539;DHT22;16482;51.046;4.498;2022-07-11T08:13:38;24.30;54.30
29539;DHT22;16482;51.046;4.498;2022-07-11T08:16:05;24.20;54.20
29539;DHT22;16482;51.046;4.498;2022-07-11T08:18:41;24.30;54.00
29539;DHT22;16482;51.046;4.498;2022-07-11T08:21:07;24.30;54.00
29539;DHT22;16482;51.046;4.498;2022-07-11T08:23:36;24.30;53.90
29539;DHT22;16482;51.046;4.498;2022-07-11T08:26:11;24.30;53.90
29539;DHT22;16482;51.046;4.498;2022-07-11T08:28:37;24.30;53.70
29539;DHT22;16482;51.046;4.498;2022-07-11T08:31:08;24.30;53.70
29539;DHT22;16482;51.046;4.498;2022-07-11T08:33:36;24.30;53.60
29539;DHT22;16482;51.046;4.498;2022-07-11T08:36:08;24.30;53.70
29539;DHT22;16482;51.046;4.498;2022-07-11T08:38:37;24.30;53.80
29539;DHT22;16482;51.046;4.498;2022-07-11T08:41:05;24.30;53.80
29539;DHT22;16482;51.046;4.498;2022-07-11T08:43:33;24.30;53.50
29539;DHT22;16482;51.046;4.498;2022-07-11T08:46:08;24.40;53.40
29539;DHT22;16482;51.046;4.498;2022-07-11T08:48:38;24.40;53.50
29539;DHT22;16482;51.046;4.498;2022-07-11T08:51:06;24.40;53.40
29539;DHT22;16482;51.046;4.498;2022-07-11T08:53:41;24.40;53.30
29539;DHT22;16482;51.046;4.498;2022-07-11T08:56:13;24.40;53.20
29539;DHT22;16482;51.046;4.498;2022-07-11T08:58:47;24.40;53.40
29539;DHT22;16482;51.046;4.498;2022-07-11T09:01:17;24.50;53.30
29539;DHT22;16482;51.046;4.498;2022-07-11T09:03:43;24.40;53.20
29539;DHT22;16482;51.046;4.498;2022-07-11T09:06:11;24.50;53.20
29539;DHT22;16482;51.046;4.498;2022-07-11T09:08:37;24.50;52.90
29539;DHT22;16482;51.046;4.498;2022-07-11T09:11:06;24.50;53.10
29539;DHT22;16482;51.046;4.498;2022-07-11T09:13:40;24.50;53.40
29539;DHT22;16482;51.046;4.498;2022-07-11T09:16:09;24.40;53.60
29539;DHT22;16482;51.046;4.498;2022-07-11T09:18:39;24.40;53.30
29539;DHT22;16482;51.046;4.498;2022-07-11T09:21:13;24.50;53.20
29539;DHT22;16482;51.046;4.498;2022-07-11T09:24:00;24.50;52.90
29539;DHT22;16482;51.046;4.498;2022-07-11T09:26:56;24.50;53.00
29539;DHT22;16482;51.046;4.498;2022-07-11T09:29:25;24.50;52.90
29539;DHT22;16482;51.046;4.498;2022-07-11T09:32:00;24.50;52.90
29539;DHT22;16482;51.046;4.498;2022-07-11T09:34:26;24.60;52.90
29539;DHT22;16482;51.046;4.498;2022-07-11T09:37:03;24.60;52.90
29539;DHT22;16482;51.046;4.498;2022-07-11T09:39:29;24.60;52.80
29539;DHT22;16482;51.046;4.498;2022-07-11T09:41:56;24.60;52.90
29539;DHT22;16482;51.046;4.498;2022-07-11T09:44:31;24.60;53.00
29539;DHT22;16482;51.046;4.498;2022-07-11T09:46:59;24.60;53.30
29539;DHT22;16482;51.046;4.498;2022-07-11T09:49:40;24.60;53.00
29539;DHT22;16482;51.046;4.498;2022-07-11T09:52:16;24.60;53.10
29539;DHT22;16482;51.046;4.498;2022-07-11T09:57:18;24.60;53.00
29539;DHT22;16482;51.046;4.498;2022-07-11T09:59:54;24.60;53.00
29539;DHT22;16482;51.046;4.498;2022-07-11T10:02:20;24.60;53.00
29539;DHT22;16482;51.046;4.498;2022-07-11T10:04:47;24.60;53.00
29539;DHT22;16482;51.046;4.498;2022-07-11T10:07:13;24.60;52.80
29539;DHT22;16482;51.046;4.498;2022-07-11T10:09:38;24.60;52.90
29539;DHT22;16482;51.046;4.498;2022-07-11T10:12:05;24.60;53.00
29539;DHT22;16482;51.046;4.498;2022-07-11T10:14:31;24.70;52.80
29539;DHT22;16482;51.046;4.498;2022-07-11T10:17:10;24.70;52.90
29539;DHT22;16482;51.046;4.498;2022-07-11T10:23:06;24.70;52.80
29539;DHT22;16482;51.046;4.498;2022-07-11T10:25:54;24.60;53.00
29539;DHT22;16482;51.046;4.498;2022-07-11T10:28:48;24.70;52.90
29539;DHT22;16482;51.046;4.498;2022-07-11T10:31:24;24.70;52.70
29539;DHT22;16482;51.046;4.498;2022-07-11T10:34:10;24.70;53.00
29539;DHT22;16482;51.046;4.498;2022-07-11T10:36:43;24.60;53.10
29539;DHT22;16482;51.046;4.498;2022-07-11T10:39:16;24.70;53.20
29539;DHT22;16482;51.046;4.498;2022-07-11T10:41:43;24.70;53.20
29539;DHT22;16482;51.046;4.498;2022-07-11T10:44:09;24.60;53.00
29539;DHT22;16482;51.046;4.498;2022-07-11T10:46:38;24.70;52.90
29539;DHT22;16482;51.046;4.498;2022-07-11T11:00:11;24.70;53.50
29539;DHT22;16482;51.046;4.498;2022-07-11T11:03:10;24.70;53.40
29539;DHT22;16482;51.046;4.498;2022-07-11T11:05:46;24.70;53.20
29539;DHT22;16482;51.046;4.498;2022-07-11T11:16:43;24.80;53.40
29539;DHT22;16482;51.046;4.498;2022-07-11T11:22:15;24.80;53.40
29539;DHT22;16482;51.046;4.498;2022-07-11T11:24:42;24.80;53.50
29539;DHT22;16482;51.046;4.498;2022-07-11T11:27:22;24.70;53.40
29539;DHT22;16482;51.046;4.498;2022-07-11T11:29:50;24.80;53.50
29539;DHT22;16482;51.046;4.498;2022-07-11T11:32:18;24.80;53.50
29539;DHT22;16482;51.046;4.498;2022-07-11T11:34:45;24.80;53.60
29539;DHT22;16482;51.046;4.498;2022-07-11T11:37:11;24.80;53.50
29539;DHT22;16482;51.046;4.498;2022-07-11T11:39:38;24.80;53.50
29539;DHT22;16482;51.046;4.498;2022-07-11T11:42:09;24.80;53.40
29539;DHT22;16482;51.046;4.498;2022-07-11T11:44:51;24.80;53.40
29539;DHT22;16482;51.046;4.498;2022-07-11T11:47:17;24.80;53.20
29539;DHT22;16482;51.046;4.498;2022-07-11T11:49:44;24.80;53.30
29539;DHT22;16482;51.046;4.498;2022-07-11T11:52:11;24.80;53.40
29539;DHT22;16482;51.046;4.498;2022-07-11T11:54:37;24.80;53.30
29539;DHT22;16482;51.046;4.498;2022-07-11T11:57:08;24.80;53.50
29539;DHT22;16482;51.046;4.498;2022-07-11T11:59:36;24.80;53.50
29539;DHT22;16482;51.046;4.498;2022-07-11T12:02:03;24.80;53.50
29539;DHT22;16482;51.046;4.498;2022-07-11T12:04:33;24.80;53.40
29539;DHT22;16482;51.046;4.498;2022-07-11T12:07:00;24.80;53.30
29539;DHT22;16482;51.046;4.498;2022-07-11T12:09:30;24.80;53.50
29539;DHT22;16482;51.046;4.498;2022-07-11T12:12:21;24.80;53.60
29539;DHT22;16482;51.046;4.498;2022-07-11T12:15:22;24.80;53.60
29539;DHT22;16482;51.046;4.498;2022-07-11T12:17:52;24.80;53.70
29539;DHT22;16482;51.046;4.498;2022-07-11T12:20:40;24.80;53.60
29539;DHT22;16482;51.046;4.498;2022-07-11T12:23:12;24.80;53.50
29539;DHT22;16482;51.046;4.498;2022-07-11T12:25:38;24.80;53.50
29539;DHT22;16482;51.046;4.498;2022-07-11T12:28:05;24.80;53.50
29539;DHT22;16482;51.046;4.498;2022-07-11T12:30:34;24.80;53.50
29539;DHT22;16482;51.046;4.498;2022-07-11T12:33:08;24.80;53.60
29539;DHT22;16482;51.046;4.498;2022-07-11T12:35:34;24.80;53.60
29539;DHT22;16482;51.046;4.498;2022-07-11T12:38:00;24.80;53.70
29539;DHT22;16482;51.046;4.498;2022-07-11T12:40:29;24.80;53.80
29539;DHT22;16482;51.046;4.498;2022-07-11T12:42:55;24.80;53.70
29539;DHT22;16482;51.046;4.498;2022-07-11T12:45:21;24.80;53.60
29539;DHT22;16482;51.046;4.498;2022-07-11T12:47:51;24.90;53.60
29539;DHT22;16482;51.046;4.498;2022-07-11T12:50:26;24.90;53.60
29539;DHT22;16482;51.046;4.498;2022-07-11T12:52:57;24.90;53.40
29539;DHT22;16482;51.046;4.498;2022-07-11T12:55:32;24.80;53.40
29539;DHT22;16482;51.046;4.498;2022-07-11T12:58:08;24.90;53.40
29539;DHT22;16482;51.046;4.498;2022-07-11T13:00:36;24.80;53.50
29539;DHT22;16482;51.046;4.498;2022-07-11T13:03:04;24.80;53.70
29539;DHT22;16482;51.046;4.498;2022-07-11T13:05:46;24.90;54.30
29539;DHT22;16482;51.046;4.498;2022-07-11T13:08:24;24.90;53.20
29539;DHT22;16482;51.046;4.498;2022-07-11T13:11:15;24.90;53.60
29539;DHT22;16482;51.046;4.498;2022-07-11T13:13:45;24.90;53.50
29539;DHT22;16482;51.046;4.498;2022-07-11T13:16:14;24.90;53.60
29539;DHT22;16482;51.046;4.498;2022-07-11T13:18:40;24.90;53.50
29539;DHT22;16482;51.046;4.498;2022-07-11T13:21:15;24.90;53.50
29539;DHT22;16482;51.046;4.498;2022-07-11T13:23:41;24.90;53.40
29539;DHT22;16482;51.046;4.498;2022-07-11T13:26:08;24.90;53.20
29539;DHT22;16482;51.046;4.498;2022-07-11T13:28:42;24.80;53.60
29539;DHT22;16482;51.046;4.498;2022-07-11T13:31:10;24.90;53.50
29539;DHT22;16482;51.046;4.498;2022-07-11T13:33:41;24.90;53.60
29539;DHT22;16482;51.046;4.498;2022-07-11T13:36:10;24.90;53.50
29539;DHT22;16482;51.046;4.498;2022-07-11T13:38:38;24.90;53.40
29539;DHT22;16482;51.046;4.498;2022-07-11T13:41:12;25.00;53.60
29539;DHT22;16482;51.046;4.498;2022-07-11T13:43:40;24.90;53.50
29539;DHT22;16482;51.046;4.498;2022-07-11T13:46:06;24.90;53.30
29539;DHT22;16482;51.046;4.498;2022-07-11T13:48:32;24.90;53.40
29539;DHT22;16482;51.046;4.498;2022-07-11T13:51:10;24.90;53.40
29539;DHT22;16482;51.046;4.498;2022-07-11T13:53:39;24.90;53.30
29539;DHT22;16482;51.046;4.498;2022-07-11T13:56:12;25.00;53.30
29539;DHT22;16482;51.046;4.498;2022-07-11T13:58:45;25.00;53.30
29539;DHT22;16482;51.046;4.498;2022-07-11T14:01:11;25.00;53.30
29539;DHT22;16482;51.046;4.498;2022-07-11T14:03:44;25.00;53.40
29539;DHT22;16482;51.046;4.498;2022-07-11T14:06:10;25.00;53.20
29539;DHT22;16482;51.046;4.498;2022-07-11T14:08:39;25.00;53.30
29539;DHT22;16482;51.046;4.498;2022-07-11T14:11:13;25.00;53.10
29539;DHT22;16482;51.046;4.498;2022-07-11T14:13:41;25.00;53.20
29539;DHT22;16482;51.046;4.498;2022-07-11T14:16:14;25.00;53.30
29539;DHT22;16482;51.046;4.498;2022-07-11T14:18:40;25.00;53.20
29539;DHT22;16482;51.046;4.498;2022-07-11T14:21:09;25.00;53.10
29539;DHT22;16482;51.046;4.498;2022-07-11T14:23:38;25.00;53.10
29539;DHT22;16482;51.046;4.498;2022-07-11T14:26:13;25.00;53.10
29539;DHT22;16482;51.046;4.498;2022-07-11T14:28:39;25.00;52.90
29539;DHT22;16482;51.046;4.498;2022-07-11T14:31:08;25.00;53.10
29539;DHT22;16482;51.046;4.498;2022-07-11T14:33:34;25.00;52.90
29539;DHT22;16482;51.046;4.498;2022-07-11T14:36:00;25.00;53.10
29539;DHT22;16482;51.046;4.498;2022-07-11T14:38:26;25.00;52.90
29539;DHT22;16482;51.046;4.498;2022-07-11T14:40:54;25.00;53.00
29539;DHT22;16482;51.046;4.498;2022-07-11T14:43:20;25.00;53.00
29539;DHT22;16482;51.046;4.498;2022-07-11T14:45:46;25.00;52.90
29539;DHT22;16482;51.046;4.498;2022-07-11T14:48:12;25.00;52.70
29539;DHT22;16482;51.046;4.498;2022-07-11T14:50:39;25.00;52.60
29539;DHT22;16482;51.046;4.498;2022-07-11T14:53:05;25.00;52.60
29539;DHT22;16482;51.046;4.498;2022-07-11T14:55:31;25.00;52.70
29539;DHT22;16482;51.046;4.498;2022-07-11T14:57:57;25.00;52.60
29539;DHT22;16482;51.046;4.498;2022-07-11T15:00:23;25.00;52.50
29539;DHT22;16482;51.046;4.498;2022-07-11T15:02:52;25.00;52.40
29539;DHT22;16482;51.046;4.498;2022-07-11T15:05:36;25.00;52.50
29539;DHT22;16482;51.046;4.498;2022-07-11T15:08:02;25.00;52.50
29539;DHT22;16482;51.046;4.498;2022-07-11T15:10:46;25.00;52.40
29539;DHT22;16482;51.046;4.498;2022-07-11T15:13:30;25.00;52.30
29539;DHT22;16482;51.046;4.498;2022-07-11T15:15:56;25.00;52.30
29539;DHT22;16482;51.046;4.498;2022-07-11T15:18:22;25.00;52.10
29539;DHT22;16482;51.046;4.498;2022-07-11T15:20:48;25.00;52.20
29539;DHT22;16482;51.046;4.498;2022-07-11T15:23:14;25.00;52.10
29539;DHT22;16482;51.046;4.498;2022-07-11T15:25:40;25.00;52.20
29539;DHT22;16482;51.046;4.498;2022-07-11T15:28:06;25.00;52.10
29539;DHT22;16482;51.046;4.498;2022-07-11T15:30:31;25.00;52.00
29539;DHT22;16482;51.046;4.498;2022-07-11T15:32:57;25.00;52.00
29539;DHT22;16482;51.046;4.498;2022-07-11T15:35:23;25.00;51.90
29539;DHT22;16482;51.046;4.498;2022-07-11T15:37:49;25.10;51.90
29539;DHT22;16482;51.046;4.498;2022-07-11T15:40:22;25.10;51.90
29539;DHT22;16482;51.046;4.498;2022-07-11T15:42:48;25.10;51.70
29539;DHT22;16482;51.046;4.498;2022-07-11T15:45:19;25.00;51.70
29539;DHT22;16482;51.046;4.498;2022-07-11T15:47:55;25.10;51.60
29539;DHT22;16482;51.046;4.498;2022-07-11T15:50:21;25.10;51.50
29539;DHT22;16482;51.046;4.498;2022-07-11T15:52:49;25.00;51.50
29539;DHT22;16482;51.046;4.498;2022-07-11T15:55:18;25.00;51.50
29539;DHT22;16482;51.046;4.498;2022-07-11T15:57:49;25.00;51.40
29539;DHT22;16482;51.046;4.498;2022-07-11T16:00:19;25.00;51.20
29539;DHT22;16482;51.046;4.498;2022-07-11T16:02:55;25.10;51.20
29539;DHT22;16482;51.046;4.498;2022-07-11T16:05:21;25.00;51.00
29539;DHT22;16482;51.046;4.498;2022-07-11T16:07:47;25.10;51.00
29539;DHT22;16482;51.046;4.498;2022-07-11T16:10:16;25.00;50.90
29539;DHT22;16482;51.046;4.498;2022-07-11T16:12:49;25.00;50.90
29539;DHT22;16482;51.046;4.498;2022-07-11T16:15:18;25.10;50.80
29539;DHT22;16482;51.046;4.498;2022-07-11T16:17:47;25.00;50.80